Time;durP1;ratioP1;P1;durP2;ratioP2;P2;SDS_P1;SDS_P2;PMS_P1;PMS_P2;Temp;Humidity;BMP_temperature;BMP_pressure;BME280_temperature;BME280_humidity;BME280_pressure;Samples;Min_cycle;Max_cycle;Signal;HPM_P1;HPM_P2
2023/07/14 00:01:19;;;;;;;12.68;4.45;;;;;;;;;;5084629;28;20264;-47
2023/07/14 00:03:45;;;;;;;;;;;;;;;;;;5085378;28;20047;-52
2023/07/14 00:06:12;;;;;;;10.73;3.53;;;;;;;;;;5083447;28;19946;-44
2023/07/14 00:08:40;;;;;;;9.13;3.35;;;;;;;;;;5084864;28;20036;-47
2023/07/14 00:11:24;;;;;;;7.82;3.33;;;;;;;;;;5084593;28;20355;-48
2023/07/14 00:13:52;;;;;;;6.88;3.22;;;;;;;;;;5084714;28;20033;-50
2023/07/14 00:16:20;;;;;;;9.00;3.05;;;;;;;;;;5084654;28;20335;-49
2023/07/14 00:18:47;;;;;;;6.03;2.95;;;;;;;;;;5085108;28;20028;-43
2023/07/14 00:21:19;;;;;;;6.70;3.28;;;;;;;;;;5084428;28;20212;-43
2023/07/14 00:23:46;;;;;;;8.32;3.97;;;;;;;;;;5084832;28;20087;-44
2023/07/14 00:26:21;;;;;;;9.73;5.32;;;;;;;;;;5084175;28;20040;-45
2023/07/14 00:28:48;;;;;;;10.38;5.60;;;;;;;;;;5084173;28;20037;-42
2023/07/14 00:31:17;;;;;;;16.13;8.23;;;;;;;;;;5083912;28;20220;-43
2023/07/14 00:33:44;;;;;;;11.20;6.25;;;;;;;;;;5084572;28;20024;-43
2023/07/14 00:36:11;;;;;;;11.23;5.90;;;;;;;;;;5084322;28;20048;-43
2023/07/14 00:38:38;;;;;;;8.07;4.85;;;;;;;;;;5066115;28;20332;-44
2023/07/14 00:41:07;;;;;;;9.75;4.32;;;;;;;;;;5084578;28;20021;-45
2023/07/14 00:43:35;;;;;;;8.95;2.80;;;;;;;;;;5084452;28;20035;-43
2023/07/14 00:46:02;;;;;;;6.82;2.45;;;;;;;;;;5082681;28;20036;-45
2023/07/14 00:48:30;;;;;;;5.10;2.63;;;;;;;;;;5095184;28;20051;-43
2023/07/14 00:51:15;;;;;;;7.30;2.55;;;;;;;;;;5092450;28;20027;-46
2023/07/14 00:53:45;;;;;;;7.30;2.97;;;;;;;;;;5100988;28;20216;-52
2023/07/14 00:56:15;;;;;;;5.63;2.50;;;;;;;;;;5104645;28;20312;-43
2023/07/14 00:58:49;;;;;;;6.63;2.10;;;;;;;;;;5104435;28;20112;-41
2023/07/14 01:01:22;;;;;;;5.85;2.08;;;;;;;;;;5109964;28;20024;-46
2023/07/14 01:03:57;;;;;;;5.00;2.33;;;;;;;;;;5125117;28;20027;-41
2023/07/14 01:06:26;;;;;;;5.05;2.33;;;;;;;;;;5124851;28;20047;-44
2023/07/14 01:08:56;;;;;;;17.13;9.57;;;;;;;;;;5125153;28;20036;-51
2023/07/14 01:11:25;;;;;;;13.77;8.23;;;;;;;;;;5107038;28;20038;-43
2023/07/14 01:13:52;;;;;;;8.82;5.68;;;;;;;;;;5109127;28;20028;-49
2023/07/14 01:16:19;;;;;;;6.65;3.58;;;;;;;;;;5095608;28;20325;-42
2023/07/14 01:18:47;;;;;;;8.85;2.72;;;;;;;;;;5103729;28;20020;-45
2023/07/14 01:21:14;;;;;;;6.70;2.10;;;;;;;;;;5097732;28;20069;-43
2023/07/14 01:24:04;;;;;;;7.35;2.22;;;;;;;;;;5092767;28;20055;-42
2023/07/14 01:26:49;;;;;;;10.52;2.47;;;;;;;;;;5065267;28;20028;-40
2023/07/14 01:29:17;;;;;;;4.97;1.90;;;;;;;;;;5105404;28;20058;-41
2023/07/14 01:31:44;;;;;;;6.47;1.75;;;;;;;;;;5124392;28;20209;-41
2023/07/14 01:34:11;;;;;;;6.25;1.75;;;;;;;;;;5106396;28;20028;-44
2023/07/14 01:36:39;;;;;;;3.72;1.80;;;;;;;;;;5124370;28;20052;-47
2023/07/14 01:39:06;;;;;;;5.95;1.80;;;;;;;;;;5124307;28;20032;-45
2023/07/14 01:41:33;;;;;;;4.82;1.73;;;;;;;;;;5124281;28;20039;-41
2023/07/14 01:44:03;;;;;;;4.03;1.80;;;;;;;;;;5126743;28;20338;-58
2023/07/14 01:46:30;;;;;;;7.38;1.80;;;;;;;;;;5109017;28;20020;-45
2023/07/14 01:49:01;;;;;;;6.75;1.95;;;;;;;;;;5091441;28;20079;-44
2023/07/14 01:51:31;;;;;;;4.30;1.77;;;;;;;;;;5088568;28;20248;-47
2023/07/14 01:54:07;;;;;;;4.35;1.60;;;;;;;;;;5087870;28;20040;-51
2023/07/14 01:56:34;;;;;;;3.95;1.52;;;;;;;;;;5087125;28;20025;-42
2023/07/14 01:59:34;;;;;;;4.47;1.58;;;;;;;;;;5091594;28;20024;-52
2023/07/14 02:02:04;;;;;;;5.45;2.00;;;;;;;;;;5093106;28;20028;-44
2023/07/14 04:40:33;;;;;;;4.68;1.80;;;;;;;;;;5102284;28;20071;-53
2023/07/14 04:43:00;;;;;;;5.68;1.55;;;;;;;;;;5102812;28;20048;-48
2023/07/14 04:45:26;;;;;;;6.93;1.63;;;;;;;;;;5101119;28;20336;-45
2023/07/14 04:47:56;;;;;;;3.08;1.58;;;;;;;;;;5100690;28;20220;-42
2023/07/14 04:50:23;;;;;;;3.85;1.60;;;;;;;;;;5091895;28;20036;-42
2023/07/14 04:52:49;;;;;;;4.13;1.60;;;;;;;;;;5094912;28;20040;-50
2023/07/14 04:55:16;;;;;;;3.67;1.40;;;;;;;;;;5082243;28;20209;-47
2023/07/14 04:57:43;;;;;;;7.00;1.60;;;;;;;;;;5099203;28;20036;-46
2023/07/14 05:00:11;;;;;;;3.92;2.28;;;;;;;;;;5099016;28;20016;-46
2023/07/14 05:02:38;;;;;;;7.15;3.10;;;;;;;;;;5101029;28;20359;-45
2023/07/14 05:05:10;;;;;;;8.27;3.10;;;;;;;;;;5102552;28;20051;-50
2023/07/14 05:07:37;;;;;;;4.95;2.20;;;;;;;;;;5102411;28;20103;-53
2023/07/14 05:10:04;;;;;;;6.75;2.22;;;;;;;;;;5098029;28;20028;-47
2023/07/14 05:12:30;;;;;;;2.92;1.40;;;;;;;;;;5102115;28;20095;-44
2023/07/14 05:14:57;;;;;;;2.78;1.40;;;;;;;;;;5100781;28;20032;-53
2023/07/14 05:17:25;;;;;;;4.22;1.45;;;;;;;;;;5103483;28;20049;-44
2023/07/14 05:19:51;;;;;;;4.43;1.40;;;;;;;;;;5105162;28;20316;-42
2023/07/14 05:22:18;;;;;;;4.13;1.20;;;;;;;;;;5099052;28;20304;-51
2023/07/14 05:24:45;;;;;;;5.30;1.25;;;;;;;;;;5107096;28;20031;-47
2023/07/14 05:27:11;;;;;;;4.70;1.25;;;;;;;;;;5104950;28;20032;-47
2023/07/14 05:29:39;;;;;;;4.80;1.30;;;;;;;;;;5104983;28;21137;-48
2023/07/14 05:32:08;;;;;;;5.88;1.60;;;;;;;;;;5106402;28;20340;-46
2023/07/14 05:34:34;;;;;;;4.72;1.27;;;;;;;;;;5108116;28;20092;-48
2023/07/14 05:37:01;;;;;;;5.15;1.48;;;;;;;;;;5107878;28;20016;-46
2023/07/14 05:39:28;;;;;;;2.75;1.45;;;;;;;;;;5093351;28;20040;-43
2023/07/14 05:41:58;;;;;;;5.05;1.40;;;;;;;;;;5102473;28;20138;-53
2023/07/14 05:44:26;;;;;;;3.65;1.13;;;;;;;;;;5106086;28;20269;-48
2023/07/14 05:46:53;;;;;;;4.65;1.30;;;;;;;;;;5099998;28;20028;-43
2023/07/14 05:49:19;;;;;;;2.40;1.10;;;;;;;;;;5097966;28;20040;-42
2023/07/14 05:51:46;;;;;;;3.80;1.50;;;;;;;;;;5102174;28;20031;-58
2023/07/14 05:54:13;;;;;;;3.17;0.98;;;;;;;;;;5103873;28;20300;-43
2023/07/14 05:56:40;;;;;;;2.75;1.05;;;;;;;;;;5107553;28;20035;-46
2023/07/14 05:59:07;;;;;;;4.15;1.10;;;;;;;;;;5101297;28;20068;-45
2023/07/14 06:01:33;;;;;;;2.95;1.13;;;;;;;;;;5102506;28;20020;-46
2023/07/14 06:04:00;;;;;;;3.90;1.27;;;;;;;;;;5099602;28;20028;-49
2023/07/14 06:06:27;;;;;;;3.70;1.20;;;;;;;;;;5105178;28;20212;-45
2023/07/14 06:08:55;;;;;;;5.38;1.23;;;;;;;;;;5103868;28;20381;-47
2023/07/14 06:11:21;;;;;;;4.63;1.27;;;;;;;;;;5100622;28;20029;-43
2023/07/14 06:13:48;;;;;;;4.15;1.60;;;;;;;;;;5094988;28;20044;-46
2023/07/14 06:16:15;;;;;;;3.38;1.35;;;;;;;;;;5102889;28;20054;-45
2023/07/14 06:18:41;;;;;;;4.28;1.60;;;;;;;;;;5093218;28;20040;-47
2023/07/14 06:21:10;;;;;;;7.32;1.50;;;;;;;;;;5104485;28;20065;-48
2023/07/14 06:23:37;;;;;;;2.40;1.20;;;;;;;;;;5095430;28;20039;-48
2023/07/14 06:26:04;;;;;;;3.30;1.30;;;;;;;;;;5093153;28;20060;-49
2023/07/14 06:28:30;;;;;;;2.83;1.10;;;;;;;;;;5103463;28;20024;-45
2023/07/14 06:30:59;;;;;;;4.70;1.20;;;;;;;;;;5105389;28;20285;-43
2023/07/14 06:33:26;;;;;;;5.10;1.10;;;;;;;;;;5105400;28;20036;-55
2023/07/14 06:35:55;;;;;;;5.93;1.40;;;;;;;;;;5095629;28;20203;-54
2023/07/14 06:38:22;;;;;;;5.75;1.98;;;;;;;;;;5098524;28;20125;-43
2023/07/14 06:40:58;;;;;;;6.07;2.20;;;;;;;;;;5098459;28;20047;-43
2023/07/14 06:43:25;;;;;;;6.35;2.13;;;;;;;;;;5102593;28;20209;-43
2023/07/14 06:45:51;;;;;;;6.68;2.33;;;;;;;;;;5105472;28;20097;-50
2023/07/14 06:48:18;;;;;;;4.72;2.28;;;;;;;;;;5098483;28;20115;-52
2023/07/14 06:50:47;;;;;;;7.65;2.53;;;;;;;;;;5105429;28;20058;-43
2023/07/14 06:53:14;;;;;;;9.75;3.08;;;;;;;;;;5106485;28;20040;-43
2023/07/14 06:55:43;;;;;;;6.88;2.40;;;;;;;;;;5105369;28;20019;-50
2023/07/14 06:58:10;;;;;;;7.13;2.33;;;;;;;;;;5106457;28;20024;-49
2023/07/14 07:00:36;;;;;;;7.82;2.33;;;;;;;;;;5100137;28;20340;-44
2023/07/14 07:03:05;;;;;;;5.53;2.00;;;;;;;;;;5104321;28;20032;-47
2023/07/14 07:05:35;;;;;;;5.63;2.45;;;;;;;;;;5106150;28;20027;-53
2023/07/14 07:08:02;;;;;;;8.25;2.50;;;;;;;;;;5106399;28;20040;-52
2023/07/14 07:10:28;;;;;;;5.97;2.05;;;;;;;;;;5105952;28;20015;-44
2023/07/14 07:12:55;;;;;;;4.38;1.60;;;;;;;;;;5106263;28;20304;-43
2023/07/14 07:15:22;;;;;;;5.57;1.70;;;;;;;;;;5105910;28;20087;-45
2023/07/14 07:17:48;;;;;;;4.15;1.80;;;;;;;;;;5105994;28;20020;-44
2023/07/14 07:20:15;;;;;;;8.15;2.35;;;;;;;;;;5099813;28;20085;-45
2023/07/14 07:22:42;;;;;;;6.35;1.65;;;;;;;;;;5106076;28;20094;-44
2023/07/14 07:25:09;;;;;;;6.63;1.75;;;;;;;;;;5105868;28;20080;-50
2023/07/14 07:27:35;;;;;;;6.82;1.98;;;;;;;;;;5105980;28;20039;-44
2023/07/14 07:30:03;;;;;;;4.50;1.95;;;;;;;;;;5105861;28;20060;-46
2023/07/14 07:32:30;;;;;;;8.82;2.28;;;;;;;;;;5100997;28;20043;-43
2023/07/14 07:34:59;;;;;;;6.97;1.67;;;;;;;;;;5103792;28;20073;-48
2023/07/14 07:37:29;;;;;;;4.93;1.70;;;;;;;;;;5105522;28;20028;-51
2023/07/14 07:39:56;;;;;;;5.47;1.30;;;;;;;;;;5099599;28;20103;-44
2023/07/14 07:42:23;;;;;;;5.15;1.58;;;;;;;;;;5105131;28;20028;-43
2023/07/14 07:44:50;;;;;;;3.28;1.58;;;;;;;;;;5105446;28;20040;-47
2023/07/14 07:47:17;;;;;;;5.00;1.08;;;;;;;;;;5105346;28;20054;-45
2023/07/14 07:49:43;;;;;;;5.45;1.23;;;;;;;;;;5105561;28;20224;-42
2023/07/14 07:52:12;;;;;;;4.00;1.23;;;;;;;;;;5100297;28;20270;-50
2023/07/14 07:54:41;;;;;;;4.53;1.20;;;;;;;;;;5096630;28;20032;-55
2023/07/14 07:57:09;;;;;;;6.07;1.30;;;;;;;;;;5096951;28;20028;-43
2023/07/14 07:59:36;;;;;;;3.65;1.10;;;;;;;;;;5085376;28;20097;-44
2023/07/14 08:02:03;;;;;;;1.83;1.00;;;;;;;;;;5084900;28;20028;-43
2023/07/14 08:04:30;;;;;;;3.08;1.23;;;;;;;;;;5085262;28;20024;-42
2023/07/14 08:06:56;;;;;;;4.25;1.00;;;;;;;;;;5084883;28;20074;-44
2023/07/14 08:09:23;;;;;;;5.15;1.20;;;;;;;;;;5084990;28;20028;-45
2023/07/14 08:11:55;;;;;;;3.40;1.15;;;;;;;;;;5084639;28;20024;-44
2023/07/14 08:14:21;;;;;;;3.33;0.95;;;;;;;;;;5084966;28;20047;-44
2023/07/14 08:16:48;;;;;;;4.25;1.30;;;;;;;;;;5084401;28;20024;-49
2023/07/14 08:19:15;;;;;;;3.25;0.95;;;;;;;;;;5085046;28;20032;-54
2023/07/14 08:21:42;;;;;;;2.65;1.10;;;;;;;;;;5084491;28;20040;-45
2023/07/14 08:24:09;;;;;;;5.18;1.13;;;;;;;;;;5084663;28;20074;-52
2023/07/14 08:26:37;;;;;;;6.80;1.42;;;;;;;;;;5097721;28;20028;-46
2023/07/14 08:29:05;;;;;;;4.40;1.17;;;;;;;;;;5100622;28;20308;-45
2023/07/14 08:31:32;;;;;;;4.45;1.20;;;;;;;;;;5104408;28;20320;-50
2023/07/14 08:33:59;;;;;;;3.22;1.08;;;;;;;;;;5105031;28;20023;-47
2023/07/14 08:36:25;;;;;;;5.45;1.20;;;;;;;;;;5104602;28;20219;-55
2023/07/14 08:38:54;;;;;;;4.13;1.30;;;;;;;;;;5104444;28;20047;-54
2023/07/14 08:41:29;;;;;;;3.63;1.10;;;;;;;;;;5098152;28;20028;-45
2023/07/14 08:44:08;;;;;;;2.97;1.17;;;;;;;;;;5101238;28;20032;-45
2023/07/14 08:46:54;;;;;;;4.50;1.40;;;;;;;;;;5104041;28;20020;-47
2023/07/14 08:49:36;;;;;;;3.35;1.20;;;;;;;;;;5104799;28;20059;-48
2023/07/14 08:52:03;;;;;;;;;;;;;;;;;;5095088;28;20359;-45
2023/07/14 08:54:35;;;;;;;4.20;1.35;;;;;;;;;;5094409;28;19907;-48
2023/07/14 08:57:02;;;;;;;5.47;1.13;;;;;;;;;;5091890;28;20036;-44
2023/07/14 08:59:39;;;;;;;6.55;1.30;;;;;;;;;;5102383;28;20032;-44
2023/07/14 09:02:24;;;;;;;2.55;1.00;;;;;;;;;;5093777;28;20340;-46
2023/07/14 09:04:59;;;;;;;4.28;1.25;;;;;;;;;;5098069;28;20348;-51
2023/07/14 09:07:26;;;;;;;6.80;1.40;;;;;;;;;;5102001;28;20186;-47
2023/07/14 09:09:53;;;;;;;3.05;1.20;;;;;;;;;;5083971;28;20032;-45
2023/07/14 09:12:31;;;;;;;4.07;1.35;;;;;;;;;;5097201;28;20039;-45
2023/07/14 09:15:00;;;;;;;4.25;1.00;;;;;;;;;;5103210;28;20051;-46
2023/07/14 09:17:27;;;;;;;3.55;1.30;;;;;;;;;;5097499;28;20156;-43
2023/07/14 09:20:19;;;;;;;5.82;1.40;;;;;;;;;;5096508;28;20321;-47
2023/07/14 09:22:49;;;;;;;2.83;1.17;;;;;;;;;;5051111;28;20044;-46
2023/07/14 09:25:24;;;;;;;5.10;1.40;;;;;;;;;;5096654;28;20032;-45
2023/07/14 09:27:51;;;;;;;7.43;1.55;;;;;;;;;;5103901;28;20032;-45
2023/07/14 09:30:19;;;;;;;7.45;1.30;;;;;;;;;;5083793;28;20066;-45
2023/07/14 09:32:49;;;;;;;3.47;1.10;;;;;;;;;;5083576;28;20020;-47
2023/07/14 09:35:17;;;;;;;4.95;1.30;;;;;;;;;;5083651;28;20043;-47
2023/07/14 09:38:03;;;;;;;5.88;1.50;;;;;;;;;;5083556;28;20036;-48
2023/07/14 09:40:33;;;;;;;4.13;1.40;;;;;;;;;;5083366;28;20078;-45
2023/07/14 09:43:01;;;;;;;4.75;1.40;;;;;;;;;;5092788;28;20250;-49
2023/07/14 09:45:31;;;;;;;7.38;1.65;;;;;;;;;;5093368;28;20079;-46
2023/07/14 09:48:02;;;;;;;5.97;1.63;;;;;;;;;;5099919;28;20036;-45
2023/07/14 09:50:32;;;;;;;8.15;1.60;;;;;;;;;;5083308;28;20031;-49
2023/07/14 09:53:02;;;;;;;4.18;1.50;;;;;;;;;;5088869;28;20320;-45
2023/07/14 09:55:31;;;;;;;9.55;1.70;;;;;;;;;;5101585;28;20308;-51
2023/07/14 09:57:58;;;;;;;3.35;1.52;;;;;;;;;;5102319;28;20028;-45
2023/07/14 10:00:39;;;;;;;3.75;1.70;;;;;;;;;;5088504;28;20095;-44
2023/07/14 10:03:16;;;;;;;5.13;1.70;;;;;;;;;;5089817;28;20074;-50
2023/07/14 10:05:48;;;;;;;6.10;1.90;;;;;;;;;;5090194;28;20103;-42
2023/07/14 10:08:26;;;;;;;5.72;1.60;;;;;;;;;;5104406;28;20262;-43
2023/07/14 10:10:55;;;;;;;7.78;1.70;;;;;;;;;;5080883;28;20020;-43
2023/07/14 10:13:26;;;;;;;4.18;1.60;;;;;;;;;;5087084;28;20037;-43
2023/07/14 10:16:07;;;;;;;8.00;1.95;;;;;;;;;;5086569;28;20021;-44
2023/07/14 10:18:45;;;;;;;5.80;1.67;;;;;;;;;;5098014;28;20020;-46
2023/07/14 10:21:16;;;;;;;5.40;1.83;;;;;;;;;;5103781;28;20313;-46
2023/07/14 10:23:56;;;;;;;9.68;2.45;;;;;;;;;;5106287;28;20040;-56
2023/07/14 10:26:28;;;;;;;8.35;2.45;;;;;;;;;;5100452;28;20020;-59
2023/07/14 10:28:56;;;;;;;10.35;2.83;;;;;;;;;;5102054;28;20036;-57
2023/07/14 10:31:33;;;;;;;7.18;2.53;;;;;;;;;;5095589;28;20071;-48
2023/07/14 10:34:18;;;;;;;9.00;2.15;;;;;;;;;;5097386;28;20032;-45
2023/07/14 10:36:46;;;;;;;11.80;4.88;;;;;;;;;;5106623;28;20016;-45
2023/07/14 10:39:17;;;;;;;10.82;3.50;;;;;;;;;;5106818;28;20117;-46
2023/07/14 10:41:47;;;;;;;8.30;2.85;;;;;;;;;;5105953;28;20089;-46
2023/07/14 10:44:26;;;;;;;9.38;2.80;;;;;;;;;;5106602;28;20028;-47
2023/07/14 10:46:55;;;;;;;10.15;3.05;;;;;;;;;;5106720;28;20091;-47
2023/07/14 10:49:32;;;;;;;8.52;2.42;;;;;;;;;;5106405;28;20024;-51
2023/07/14 10:52:04;;;;;;;8.15;2.20;;;;;;;;;;5106511;28;20048;-48
2023/07/14 10:54:50;;;;;;;9.30;2.38;;;;;;;;;;5106986;28;20031;-50
2023/07/14 10:57:16;;;;;;;13.20;3.58;;;;;;;;;;5105856;28;20193;-54
2023/07/14 10:59:51;;;;;;;13.50;4.30;;;;;;;;;;5104787;28;20016;-41
2023/07/14 11:02:29;;;;;;;10.35;3.50;;;;;;;;;;5085203;28;20264;-45
2023/07/14 11:05:09;;;;;;;12.98;3.50;;;;;;;;;;5082187;28;20027;-49
2023/07/14 11:07:36;;;;;;;9.23;2.85;;;;;;;;;;5097932;28;20037;-50
2023/07/14 11:10:05;;;;;;;8.60;2.78;;;;;;;;;;5081254;28;20079;-48
2023/07/14 11:12:47;;;;;;;7.32;2.45;;;;;;;;;;5085810;28;21548;-50
2023/07/14 11:15:16;;;;;;;8.50;2.60;;;;;;;;;;5086478;28;20036;-54
2023/07/14 11:17:50;;;;;;;5.40;2.40;;;;;;;;;;5106160;28;20032;-56
2023/07/14 11:20:23;;;;;;;7.53;2.65;;;;;;;;;;5105850;28;20028;-52
2023/07/14 11:22:50;;;;;;;5.88;2.53;;;;;;;;;;5102330;28;20048;-54
2023/07/14 11:25:20;;;;;;;7.97;2.72;;;;;;;;;;5085497;28;20028;-53
2023/07/14 11:28:05;;;;;;;6.70;2.42;;;;;;;;;;5085627;28;20137;-52
2023/07/14 11:30:37;;;;;;;5.20;2.33;;;;;;;;;;5088303;28;20050;-50
2023/07/14 11:33:06;;;;;;;5.28;2.13;;;;;;;;;;5094360;28;20028;-47
2023/07/14 11:35:40;;;;;;;7.03;2.03;;;;;;;;;;5098971;28;20063;-48
2023/07/14 11:38:25;;;;;;;7.13;1.98;;;;;;;;;;5100971;28;20069;-45
2023/07/14 11:40:53;;;;;;;5.80;1.73;;;;;;;;;;5080481;28;20229;-47
2023/07/14 11:43:25;;;;;;;7.10;2.22;;;;;;;;;;5074193;28;20039;-44
2023/07/14 11:46:13;;;;;;;3.95;1.55;;;;;;;;;;5082095;28;20083;-51
2023/07/14 11:48:40;;;;;;;5.40;1.80;;;;;;;;;;5078839;28;20033;-46
2023/07/14 11:51:06;;;;;;;8.73;1.88;;;;;;;;;;5075765;28;20260;-53
2023/07/14 11:53:34;;;;;;;11.38;1.92;;;;;;;;;;5063505;28;20094;-48
2023/07/14 11:56:19;;;;;;;4.05;1.70;;;;;;;;;;5073981;28;20027;-47
2023/07/14 11:58:45;;;;;;;5.68;1.63;;;;;;;;;;5082378;28;20038;-48
2023/07/14 12:01:17;;;;;;;7.10;1.90;;;;;;;;;;5105162;28;20089;-46
2023/07/14 12:03:56;;;;;;;9.10;1.70;;;;;;;;;;5105350;28;20080;-45
2023/07/14 12:06:25;;;;;;;8.32;1.90;;;;;;;;;;5104828;28;20270;-48
2023/07/14 12:09:11;;;;;;;3.75;1.60;;;;;;;;;;5104987;28;20221;-49
2023/07/14 12:11:40;;;;;;;6.45;1.83;;;;;;;;;;5104725;28;20036;-52
2023/07/14 12:14:25;;;;;;;4.90;1.58;;;;;;;;;;5105431;28;20035;-42
2023/07/14 12:16:52;;;;;;;2.35;1.25;;;;;;;;;;5104654;28;20134;-46
2023/07/14 12:19:32;;;;;;;3.42;1.67;;;;;;;;;;5104827;28;20024;-48
2023/07/14 12:22:10;;;;;;;7.15;1.70;;;;;;;;;;5103694;28;20032;-44
2023/07/14 12:24:42;;;;;;;4.82;1.73;;;;;;;;;;5105104;28;20035;-47
2023/07/14 12:27:17;;;;;;;7.30;1.75;;;;;;;;;;5104077;28;20028;-46
2023/07/14 12:29:44;;;;;;;4.43;1.60;;;;;;;;;;5104734;28;20036;-43
2023/07/14 12:32:18;;;;;;;4.32;1.40;;;;;;;;;;5104466;28;20220;-46
2023/07/14 12:34:46;;;;;;;5.10;1.50;;;;;;;;;;5104330;28;20316;-43
2023/07/14 12:37:17;;;;;;;6.35;1.70;;;;;;;;;;5104484;28;20331;-47
2023/07/14 12:39:47;;;;;;;5.10;1.20;;;;;;;;;;5104313;28;20094;-47
2023/07/14 12:42:15;;;;;;;2.33;1.15;;;;;;;;;;5104227;28;20223;-44
2023/07/14 12:44:42;;;;;;;4.40;1.65;;;;;;;;;;5104465;28;20028;-46
2023/07/14 12:47:16;;;;;;;3.03;1.25;;;;;;;;;;5104348;28;20043;-50
2023/07/14 12:49:46;;;;;;;5.20;1.40;;;;;;;;;;5104391;28;20040;-46
2023/07/14 12:52:18;;;;;;;5.22;2.15;;;;;;;;;;5103975;28;20083;-44
2023/07/14 12:54:46;;;;;;;7.20;1.95;;;;;;;;;;5104015;28;20031;-47
2023/07/14 12:57:14;;;;;;;7.50;1.88;;;;;;;;;;5103895;28;20051;-49
2023/07/14 12:59:40;;;;;;;3.55;1.38;;;;;;;;;;5104017;28;20027;-49
2023/07/14 13:02:13;;;;;;;1.73;1.30;;;;;;;;;;5103872;28;20032;-45
2023/07/14 13:04:40;;;;;;;3.40;1.30;;;;;;;;;;5104042;28;20044;-44
2023/07/14 13:07:10;;;;;;;7.68;1.50;;;;;;;;;;5104183;28;20047;-49
2023/07/14 13:09:38;;;;;;;4.75;1.40;;;;;;;;;;5103964;28;20056;-43
2023/07/14 13:12:05;;;;;;;6.18;1.50;;;;;;;;;;5104026;28;20050;-44
2023/07/14 13:14:45;;;;;;;8.25;1.70;;;;;;;;;;5104402;28;20020;-49
2023/07/14 13:17:19;;;;;;;4.63;1.40;;;;;;;;;;5103691;28;20016;-50
2023/07/14 13:19:48;;;;;;;6.05;1.40;;;;;;;;;;5103852;28;20052;-45
2023/07/14 13:22:37;;;;;;;5.03;1.30;;;;;;;;;;5103725;28;20020;-45
2023/07/14 13:25:18;;;;;;;3.85;1.38;;;;;;;;;;5103838;28;20102;-48
2023/07/14 13:27:45;;;;;;;4.13;1.40;;;;;;;;;;5104050;28;20043;-47
2023/07/14 13:30:32;;;;;;;5.13;1.42;;;;;;;;;;5103955;28;20091;-45
2023/07/14 13:32:59;;;;;;;2.85;1.25;;;;;;;;;;5103785;28;20032;-54
2023/07/14 13:35:31;;;;;;;4.55;1.75;;;;;;;;;;5103759;28;20047;-45
2023/07/14 13:38:02;;;;;;;3.65;1.42;;;;;;;;;;5103894;28;20035;-48
2023/07/14 13:40:37;;;;;;;4.10;1.70;;;;;;;;;;5107453;28;20097;-44
2023/07/14 13:43:04;;;;;;;4.88;1.60;;;;;;;;;;5107635;28;20101;-46
2023/07/14 13:45:38;;;;;;;6.22;1.85;;;;;;;;;;5107750;28;20083;-44
2023/07/14 13:48:20;;;;;;;7.47;2.33;;;;;;;;;;5107658;28;20032;-47
2023/07/14 13:50:47;;;;;;;7.95;2.22;;;;;;;;;;5107802;28;20073;-53
2023/07/14 13:53:14;;;;;;;6.05;2.10;;;;;;;;;;5107795;28;20058;-56
2023/07/14 13:55:41;;;;;;;6.68;2.28;;;;;;;;;;5107525;28;20020;-55
2023/07/14 13:58:12;;;;;;;3.78;2.00;;;;;;;;;;5107694;28;20024;-55
2023/07/14 14:00:39;;;;;;;5.97;2.17;;;;;;;;;;5107661;28;20027;-52
2023/07/14 14:03:06;;;;;;;7.93;2.25;;;;;;;;;;5107545;28;20296;-56
2023/07/14 14:05:37;;;;;;;4.35;2.00;;;;;;;;;;5107378;28;20246;-55
2023/07/14 14:08:06;;;;;;;10.00;2.20;;;;;;;;;;5107408;28;20028;-54
2023/07/14 14:10:33;;;;;;;5.85;1.95;;;;;;;;;;5107162;28;20370;-52
2023/07/14 14:13:00;;;;;;;5.35;1.83;;;;;;;;;;5107525;28;20296;-44
2023/07/14 14:15:28;;;;;;;5.78;2.08;;;;;;;;;;5107159;28;20019;-44
2023/07/14 14:17:59;;;;;;;5.15;1.95;;;;;;;;;;5107147;28;20231;-49
2023/07/14 14:20:28;;;;;;;4.07;1.90;;;;;;;;;;5107099;28;20076;-46
2023/07/14 14:22:55;;;;;;;7.75;2.00;;;;;;;;;;5107243;28;20274;-46
2023/07/14 14:25:23;;;;;;;6.30;2.28;;;;;;;;;;5107147;28;20201;-51
2023/07/14 14:27:51;;;;;;;5.07;2.28;;;;;;;;;;5107191;28;20036;-51
2023/07/14 14:30:18;;;;;;;5.03;2.13;;;;;;;;;;5106853;28;20397;-43
2023/07/14 14:32:48;;;;;;;8.43;2.70;;;;;;;;;;5106685;28;20040;-47
2023/07/14 14:35:17;;;;;;;10.07;2.40;;;;;;;;;;5106804;28;20020;-47
2023/07/14 14:37:44;;;;;;;7.05;2.60;;;;;;;;;;5106526;28;20028;-53
2023/07/14 14:40:14;;;;;;;6.55;2.75;;;;;;;;;;5106620;28;20042;-53
2023/07/14 14:42:41;;;;;;;6.20;2.30;;;;;;;;;;5106653;28;20039;-48
2023/07/14 14:45:18;;;;;;;7.07;2.53;;;;;;;;;;5106557;28;20083;-52
2023/07/14 14:47:47;;;;;;;6.25;2.80;;;;;;;;;;5106750;28;20064;-44
2023/07/14 14:50:15;;;;;;;5.53;2.85;;;;;;;;;;5105934;28;20320;-47
2023/07/14 14:52:44;;;;;;;7.13;2.95;;;;;;;;;;5106295;28;20099;-42
2023/07/14 14:55:14;;;;;;;10.00;3.08;;;;;;;;;;5106620;28;20246;-46
2023/07/14 14:57:45;;;;;;;5.93;2.97;;;;;;;;;;5106385;28;20052;-52
2023/07/14 15:00:31;;;;;;;9.45;2.90;;;;;;;;;;5106432;28;20035;-47
2023/07/14 15:02:58;;;;;;;8.85;3.00;;;;;;;;;;5106102;28;20044;-46
2023/07/14 15:05:25;;;;;;;12.75;3.95;;;;;;;;;;5106101;28;20048;-46
2023/07/14 15:07:53;;;;;;;10.82;3.53;;;;;;;;;;5106314;28;20035;-43
2023/07/14 15:10:21;;;;;;;8.20;3.28;;;;;;;;;;5105967;28;20046;-55
2023/07/14 15:12:49;;;;;;;10.95;3.80;;;;;;;;;;5106212;28;20040;-54
2023/07/14 15:15:28;;;;;;;47.00;8.90;;;;;;;;;;5105830;28;20012;-49
2023/07/14 15:17:55;;;;;;;64.38;10.27;;;;;;;;;;5105950;28;20020;-50
2023/07/14 15:20:21;;;;;;;55.88;9.65;;;;;;;;;;5106036;28;20086;-49
2023/07/14 15:22:48;;;;;;;56.17;9.02;;;;;;;;;;5105917;28;20204;-49
2023/07/14 15:25:15;;;;;;;53.28;8.82;;;;;;;;;;5105755;28;20171;-53
2023/07/14 15:27:43;;;;;;;23.88;6.72;;;;;;;;;;5105548;28;20028;-44
2023/07/14 15:30:24;;;;;;;31.55;6.65;;;;;;;;;;5105692;28;20308;-49
2023/07/14 15:32:53;;;;;;;17.10;4.72;;;;;;;;;;5105853;28;20031;-49
2023/07/14 15:35:25;;;;;;;14.23;4.38;;;;;;;;;;5105900;28;20027;-47
2023/07/14 15:37:52;;;;;;;12.25;3.67;;;;;;;;;;5105612;28;20028;-49
2023/07/14 15:40:20;;;;;;;12.65;3.75;;;;;;;;;;5105378;28;20048;-49
2023/07/14 15:42:47;;;;;;;24.10;4.90;;;;;;;;;;5105855;28;20028;-49
2023/07/14 15:45:15;;;;;;;49.05;7.00;;;;;;;;;;5105335;28;20216;-52
2023/07/14 15:47:42;;;;;;;29.00;5.35;;;;;;;;;;5105347;28;20099;-44
2023/07/14 15:50:10;;;;;;;14.90;3.45;;;;;;;;;;5105341;28;20130;-43
2023/07/14 15:52:37;;;;;;;8.95;3.03;;;;;;;;;;5105099;28;20042;-47
2023/07/14 15:55:04;;;;;;;9.50;3.03;;;;;;;;;;5105198;28;20043;-43
2023/07/14 15:57:31;;;;;;;14.95;4.05;;;;;;;;;;5105160;28;20023;-44
2023/07/14 15:59:58;;;;;;;10.43;3.17;;;;;;;;;;5078073;28;20062;-50
2023/07/14 16:02:25;;;;;;;52.13;7.47;;;;;;;;;;5067063;28;20321;-48
2023/07/14 16:04:51;;;;;;;33.03;4.97;;;;;;;;;;5074830;28;20070;-40
2023/07/14 16:07:18;;;;;;;29.33;4.43;;;;;;;;;;5074539;28;20260;-41
2023/07/14 16:09:45;;;;;;;35.65;5.78;;;;;;;;;;5073172;28;20033;-51
2023/07/14 16:23:28;;;;;;;5.97;1.60;;;;;;;;;;5119972;27;20417;-50
2023/07/14 16:25:56;;;;;;;4.22;1.30;;;;;;;;;;5108187;28;20039;-41
2023/07/14 16:28:22;;;;;;;4.22;1.25;;;;;;;;;;5113651;28;20046;-44
2023/07/14 16:30:49;;;;;;;7.35;1.05;;;;;;;;;;5107819;28;20020;-45
2023/07/14 16:33:16;;;;;;;6.88;1.10;;;;;;;;;;5112440;28;20224;-49
2023/07/14 16:35:44;;;;;;;6.93;1.10;;;;;;;;;;5105541;28;20020;-43
2023/07/14 16:38:19;;;;;;;9.30;0.90;;;;;;;;;;5107595;28;20024;-47
2023/07/14 16:40:46;;;;;;;6.45;0.90;;;;;;;;;;5101034;28;20024;-43
2023/07/14 16:43:14;;;;;;;7.80;0.70;;;;;;;;;;5103419;28;20022;-48
2023/07/14 16:45:47;;;;;;;6.35;0.80;;;;;;;;;;5106511;28;20023;-46
2023/07/14 16:48:14;;;;;;;5.78;0.90;;;;;;;;;;5101474;28;20211;-42
2023/07/14 16:50:41;;;;;;;5.63;0.93;;;;;;;;;;5100919;28;20193;-42
2023/07/14 16:53:19;;;;;;;4.75;1.00;;;;;;;;;;5100186;28;20324;-55
2023/07/14 16:55:46;;;;;;;14.30;3.53;;;;;;;;;;5101794;28;20024;-44
2023/07/14 16:58:22;;;;;;;14.35;3.13;;;;;;;;;;5098176;28;20079;-47
2023/07/14 17:00:50;;;;;;;6.57;1.58;;;;;;;;;;5100561;28;20021;-47
2023/07/14 17:03:27;;;;;;;8.27;2.03;;;;;;;;;;5098302;28;20027;-41
2023/07/14 17:05:57;;;;;;;5.72;1.50;;;;;;;;;;5092298;28;20085;-51
2023/07/14 17:08:25;;;;;;;5.80;1.58;;;;;;;;;;5091030;28;20334;-44
2023/07/14 17:11:00;;;;;;;4.00;1.30;;;;;;;;;;5089056;28;20029;-48
2023/07/14 17:13:28;;;;;;;4.30;1.45;;;;;;;;;;5088684;28;20316;-45
2023/07/14 17:15:56;;;;;;;3.50;1.45;;;;;;;;;;5078231;28;20033;-46
2023/07/14 17:18:27;;;;;;;3.47;1.30;;;;;;;;;;5080114;28;20020;-55
2023/07/14 17:20:55;;;;;;;2.70;1.08;;;;;;;;;;5079914;28;20036;-52
2023/07/14 17:23:23;;;;;;;5.97;1.30;;;;;;;;;;5072008;28;20078;-54
2023/07/14 17:25:53;;;;;;;4.15;1.20;;;;;;;;;;5066253;28;20038;-44
2023/07/14 17:28:21;;;;;;;4.55;1.50;;;;;;;;;;5066564;28;20028;-46
2023/07/14 17:30:53;;;;;;;4.10;1.42;;;;;;;;;;5066393;28;20036;-48
2023/07/14 17:33:21;;;;;;;5.07;1.27;;;;;;;;;;5066460;28;20036;-44
2023/07/14 17:35:49;;;;;;;8.38;1.90;;;;;;;;;;5066368;28;20020;-46
2023/07/14 17:38:16;;;;;;;4.95;1.30;;;;;;;;;;5066317;28;20092;-47
2023/07/14 17:40:43;;;;;;;3.28;1.30;;;;;;;;;;5066365;28;20049;-57
2023/07/14 17:43:14;;;;;;;3.83;1.63;;;;;;;;;;5066258;28;20088;-55
2023/07/14 17:45:41;;;;;;;4.38;1.50;;;;;;;;;;5065956;28;20029;-49